Alexander von Humboldt II — DDKK2 — position and weather

sailwx.info

Track history (hours):
 
Tides and Currents Weather Stations Pressure Air Temp Water Temp Dewpoint Dewpoint Depression Visibility Wind Speed Wind Dir Waves Ship Positions

Alexander von Humboldt II

Ship's website: https://www.alex-2.de/en/

Last reported at 2017-Sep-21 09:06 UTC. Time now 2017-Sep-24 06:58 UTC.
Position N 54°09' E 011°08'.

Length 65 m; draft 4.6 m.

Type: Sailing vessel. MMSI: 218768000.

Date/timePositionNaut miles runAvg speedWind from/ knotsBaromVisibWave heightAir tempDewpointWater temp
2017-Sep-21 09:06N 54°09' E 011°08'2 5.4
2017-Sep-21 08:41N 54°10' E 011°12'1 5.1
2017-Sep-21 08:30N 54°10' E 011°13'3 5.2
2017-Sep-21 08:00N 54°11' E 011°17'3 5.2
2017-Sep-21 07:30N 54°13' E 011°21'3 5.4
2017-Sep-21 07:00N 54°14' E 011°26'3 5.4
2017-Sep-21 06:23N 54°15' E 011°31'2 5.2
2017-Sep-21 05:58N 54°16' E 011°34'1 2.7
2017-Sep-21 05:30N 54°17' E 011°36'1 1.8
2017-Sep-21 04:56N 54°18' E 011°35'1 2.2
2017-Sep-21 04:26N 54°19' E 011°35'4 1.7
2017-Sep-21 02:17N 54°15' E 011°35'1 2.7
2017-Sep-21 02:00N 54°14' E 011°35'4 3.3
2017-Sep-21 00:56N 54°11' E 011°36'4 2.7
2017-Sep-20 23:23N 54°15' E 011°34'1 2.3
2017-Sep-20 22:53N 54°16' E 011°34'1 2.6
2017-Sep-20 22:30N 54°17' E 011°33'1 2.4
2017-Sep-20 21:59N 54°18' E 011°32'2 3.1
2017-Sep-20 21:15N 54°20' E 011°32'1 2.7
2017-Sep-20 20:47N 54°22' E 011°32'1 2.3
2017-Sep-20 20:31N 54°22' E 011°32'2 3.1
2017-Sep-20 20:00N 54°24' E 011°33'2 3.2
2017-Sep-20 19:30N 54°25' E 011°33'1 2.9
2017-Sep-20 19:00N 54°27' E 011°33'1 2.6
2017-Sep-20 18:30N 54°28' E 011°33'1 2.9
2017-Sep-20 18:00N 54°30' E 011°32'2 4.1
2017-Sep-20 17:30N 54°31' E 011°31'1 2.5
2017-Sep-20 17:00N 54°31' E 011°29'15 4.3
2017-Sep-20 13:35N 54°17' E 011°34'5 1.6
2017-Sep-20 10:18N 54°22' E 011°31'1 4.1
2017-Sep-20 10:00N 54°23' E 011°32'2 5.0
2017-Sep-20 09:30N 54°26' E 011°32'2 4.3
2017-Sep-20 09:00N 54°28' E 011°32'2 4.7
2017-Sep-20 08:30N 54°30' E 011°31'2 4.1
2017-Sep-20 08:00N 54°32' E 011°29'1 2.2
2017-Sep-20 07:30N 54°31' E 011°29'1 2.4
2017-Sep-20 07:00N 54°30' E 011°30'1 2.8
2017-Sep-20 06:30N 54°29' E 011°31'1 2.8
2017-Sep-20 06:00N 54°27' E 011°33'2 3.1
2017-Sep-20 05:30N 54°26' E 011°34'2 3.1
2017-Sep-20 05:00N 54°25' E 011°36'1 2.4
2017-Sep-20 04:31N 54°24' E 011°37'1 2.5
2017-Sep-20 04:00N 54°23' E 011°39'1 2.9
2017-Sep-20 03:30N 54°22' E 011°40'2 3.1
2017-Sep-20 02:57N 54°20' E 011°41'3 3.7
2017-Sep-20 02:07N 54°17' E 011°43'1 4.1
2017-Sep-20 01:53N 54°16' E 011°43'1 2.2
2017-Sep-20 01:26N 54°16' E 011°42'1 2.2
2017-Sep-20 01:00N 54°17' E 011°41'1 2.0
2017-Sep-20 00:30N 54°18' E 011°41'1 2.0
2017-Sep-20 00:00N 54°19' E 011°41'1 1.8
2017-Sep-19 23:30N 54°20' E 011°40'1 2.0
2017-Sep-19 23:00N 54°21' E 011°40'1 2.1
2017-Sep-19 22:30N 54°22' E 011°41'1 2.8
2017-Sep-19 22:00N 54°23' E 011°41'2 3.5
2017-Sep-19 21:30N 54°25' E 011°41'2 4.0
2017-Sep-19 21:00N 54°27' E 011°41'2 4.1
2017-Sep-19 20:30N 54°29' E 011°40'1 2.3
2017-Sep-19 20:00N 54°29' E 011°38'1 1.4
2017-Sep-19 19:17N 54°28' E 011°39'0 1.5
2017-Sep-19 18:59N 54°28' E 011°39'1 1.2
2017-Sep-19 18:30N 54°27' E 011°39'1 1.8
2017-Sep-19 18:00N 54°27' E 011°40'1 1.8
2017-Sep-19 17:30N 54°26' E 011°41'5 3.6
2017-Sep-19 16:12N 54°21' E 011°44'1 6.9
2017-Sep-19 16:01N 54°20' E 011°44'3 5.1
2017-Sep-19 15:28N 54°17' E 011°44'2 4.4
2017-Sep-19 15:00N 54°15' E 011°43'6 4.4
2017-Sep-19 13:34N 54°20' E 011°36'0 6.5
2017-Sep-19 13:31N 54°21' E 011°36'3 5.8
2017-Sep-19 13:00N 54°23' E 011°33'2 4.7
2017-Sep-19 12:31N 54°25' E 011°32'3 5.4
2017-Sep-19 12:00N 54°28' E 011°31'3 5.2
2017-Sep-19 11:31N 54°31' E 011°30'2 4.5
2017-Sep-19 11:00N 54°32' E 011°28'2 4.7
2017-Sep-19 10:30N 54°34' E 011°24'3 5.1
2017-Sep-19 10:00N 54°35' E 011°21'2 4.7
2017-Sep-19 09:30N 54°36' E 011°17'2 4.4
2017-Sep-19 09:00N 54°37' E 011°14'2 3.9
2017-Sep-19 08:30N 54°38' E 011°10'2 3.5
2017-Sep-19 08:00N 54°38' E 011°08'2 3.0
2017-Sep-19 07:30N 54°38' E 011°05'2 3.5
2017-Sep-19 07:00N 54°38' E 011°02'2 3.4
2017-Sep-19 06:30N 54°38' E 010°59'2 3.4
2017-Sep-19 06:00N 54°38' E 010°56'2134.9
2017-Sep-19 06:00N 54°36' E 010°54'1 2.8 290 / 71015.0 5.4 15.0 7.616.0
2017-Sep-19 05:30N 54°37' E 010°53'2 3.3
2017-Sep-19 05:00N 54°37' E 010°50'2 3.7
2017-Sep-19 04:30N 54°37' E 010°47'2 3.1
2017-Sep-19 04:00N 54°37' E 010°45'1 2.8
2017-Sep-19 03:30N 54°37' E 010°42'1 2.4
2017-Sep-19 03:00N 54°37' E 010°40'1 2.4
2017-Sep-19 02:30N 54°37' E 010°38'1 2.4
2017-Sep-19 02:00N 54°37' E 010°36'1 2.4
2017-Sep-19 01:30N 54°38' E 010°34'1 2.4
2017-Sep-19 01:00N 54°38' E 010°32'1 2.5
2017-Sep-19 00:30N 54°38' E 010°30'1 2.7
2017-Sep-19 00:00N 54°38' E 010°28'1 2.1
2017-Sep-18 23:30N 54°39' E 010°26'1 2.0
2017-Sep-18 23:00N 54°39' E 010°24'1 1.9
2017-Sep-18 22:29N 54°39' E 010°22'1 1.9
2017-Sep-18 22:00N 54°39' E 010°21'1 1.8
2017-Sep-18 21:29N 54°40' E 010°19'1 2.1
2017-Sep-18 20:58N 54°40' E 010°18'1 2.3
2017-Sep-18 20:23N 54°41' E 010°16'1 1.7
2017-Sep-18 20:00N 54°41' E 010°15'1 1.8
2017-Sep-18 19:30N 54°41' E 010°13'1 1.8
2017-Sep-18 18:49N 54°41' E 010°11'2 1.0
2017-Sep-18 17:15N 54°42' E 010°09'1 2.9
2017-Sep-18 16:58N 54°43' E 010°08'3 1.5
2017-Sep-18 15:05N 54°45' E 010°06'0 1.3
2017-Sep-18 14:57N 54°45' E 010°06'2 1.6
2017-Sep-18 13:25N 54°46' E 010°01'  
2017-Sep-15 11:44N 54°46' E 010°06'3 7.9
2017-Sep-15 11:24N 54°44' E 010°08'3 7.5
2017-Sep-15 11:00N 54°42' E 010°12'2 4.6
2017-Sep-15 10:30N 54°40' E 010°15'17 0.9
2017-Sep-14 14:32N 54°57' E 010°05'2 5.7
2017-Sep-14 14:12N 54°55' E 010°06'1 5.7
2017-Sep-14 13:57N 54°54' E 010°07'4 7.4
2017-Sep-14 13:25N 54°50' E 010°09'3 7.7
2017-Sep-14 13:00N 54°47' E 010°11'12 7.6
2017-Sep-14 11:27N 54°35' E 010°15'39 0.8
2017-Sep-12 07:55N 54°10' E 009°24'6 6.1
2017-Sep-12 06:58N 54°05' E 009°19'3 6.5
2017-Sep-12 06:30N 54°02' E 009°18'3 6.4
2017-Sep-12 06:00N 53°59' E 009°16'3 6.3
2017-Sep-12 05:30N 53°56' E 009°13'3 5.8
2017-Sep-12 05:00N 53°54' E 009°09'1 1.3
2017-Sep-12 04:30N 53°54' E 009°09'0 0.0
2017-Sep-12 04:00N 53°54' E 009°09'1 2.7
2017-Sep-12 03:31N 53°53' E 009°07'4 8.0
2017-Sep-12 03:01N 53°51' E 009°00'4 8.5
2017-Sep-12 02:31N 53°50' E 008°53'4 7.8
2017-Sep-12 02:00N 53°51' E 008°47'3 6.6
2017-Sep-12 01:30N 53°53' E 008°42'3 6.5
2017-Sep-12 01:01N 53°56' E 008°40'2 4.7
2017-Sep-12 00:31N 53°57' E 008°37'3 6.3
2017-Sep-12 00:00N 53°58' E 008°32'3 6.3
2017-Sep-11 23:30N 53°59' E 008°27'3 6.6
2017-Sep-11 23:00N 53°59' E 008°21'4 6.7
2017-Sep-11 22:26N 53°60' E 008°14'3 6.9
2017-Sep-11 22:00N 53°59' E 008°09'3 6.4
2017-Sep-11 21:30N 53°59' E 008°04'3 6.6
2017-Sep-11 21:01N 53°58' E 007°59'4 6.8
2017-Sep-11 20:30N 53°55' E 007°55'5 5.7
2017-Sep-11 19:32N 53°51' E 008°01'0 5.1
2017-Sep-11 19:27N 53°51' E 008°02'3 7.1
2017-Sep-11 19:00N 53°49' E 008°07'4 8.5
2017-Sep-11 18:31N 53°46' E 008°11'4 8.4
2017-Sep-11 18:00N 53°43' E 008°17'4 7.2
2017-Sep-11 17:30N 53°41' E 008°21'4 7.8
2017-Sep-11 17:00N 53°38' E 008°26'4 7.8
2017-Sep-11 16:30N 53°36' E 008°31'3 5.7
2017-Sep-11 16:00N 53°33' E 008°34'0 0.4
2017-Sep-11 15:30N 53°34' E 008°34'0 0.3
2017-Sep-11 15:00N 53°33' E 008°34'1 1.4
2017-Sep-11 14:29N 53°33' E 008°34'0 0.0
2017-Sep-11 13:59N 53°33' E 008°34'0 0.0
2017-Sep-11 13:29N 53°33' E 008°34'0 0.0
2017-Sep-11 12:59N 53°33' E 008°34'0 0.0
2017-Sep-11 12:29N 53°33' E 008°34'0 0.0
2017-Sep-11 11:59N 53°33' E 008°34'0 0.0
2017-Sep-11 11:29N 53°33' E 008°34'0 0.0
2017-Sep-11 10:59N 53°33' E 008°34'0 0.0
2017-Sep-11 10:29N 53°33' E 008°34'0 0.0
2017-Sep-11 09:59N 53°33' E 008°34'0 0.0
2017-Sep-11 09:29N 53°33' E 008°34'  
Track history (hours):
 
Tides and Currents Weather Stations Pressure Air Temp Water Temp Dewpoint Dewpoint Depression Visibility Wind Speed Wind Dir Waves Ship Positions

Alexander von Humboldt II

Ship's website: https://www.alex-2.de/en/

Last reported at 2017-Sep-21 09:06 UTC. Time now 2017-Sep-24 06:58 UTC.
Position N 54°09' E 011°08'.

Length 65 m; draft 4.6 m.

Type: Sailing vessel. MMSI: 218768000.

Date/timePositionNaut miles runAvg speedWind from/ knotsBaromVisibWave heightAir tempDewpointWater temp
2017-Sep-21 09:06N 54°09' E 011°08'2 5.4
2017-Sep-21 08:41N 54°10' E 011°12'1 5.1
2017-Sep-21 08:30N 54°10' E 011°13'3 5.2
2017-Sep-21 08:00N 54°11' E 011°17'3 5.2
2017-Sep-21 07:30N 54°13' E 011°21'3 5.4
2017-Sep-21 07:00N 54°14' E 011°26'3 5.4
2017-Sep-21 06:23N 54°15' E 011°31'2 5.2
2017-Sep-21 05:58N 54°16' E 011°34'1 2.7
2017-Sep-21 05:30N 54°17' E 011°36'1 1.8
2017-Sep-21 04:56N 54°18' E 011°35'1 2.2
2017-Sep-21 04:26N 54°19' E 011°35'4 1.7
2017-Sep-21 02:17N 54°15' E 011°35'1 2.7
2017-Sep-21 02:00N 54°14' E 011°35'4 3.3
2017-Sep-21 00:56N 54°11' E 011°36'4 2.7
2017-Sep-20 23:23N 54°15' E 011°34'1 2.3
2017-Sep-20 22:53N 54°16' E 011°34'1 2.6
2017-Sep-20 22:30N 54°17' E 011°33'1 2.4
2017-Sep-20 21:59N 54°18' E 011°32'2 3.1
2017-Sep-20 21:15N 54°20' E 011°32'1 2.7
2017-Sep-20 20:47N 54°22' E 011°32'1 2.3
2017-Sep-20 20:31N 54°22' E 011°32'2 3.1
2017-Sep-20 20:00N 54°24' E 011°33'2 3.2
2017-Sep-20 19:30N 54°25' E 011°33'1 2.9
2017-Sep-20 19:00N 54°27' E 011°33'1 2.6
2017-Sep-20 18:30N 54°28' E 011°33'1 2.9
2017-Sep-20 18:00N 54°30' E 011°32'2 4.1
2017-Sep-20 17:30N 54°31' E 011°31'1 2.5
2017-Sep-20 17:00N 54°31' E 011°29'15 4.3
2017-Sep-20 13:35N 54°17' E 011°34'5 1.6
2017-Sep-20 10:18N 54°22' E 011°31'1 4.1
2017-Sep-20 10:00N 54°23' E 011°32'2 5.0
2017-Sep-20 09:30N 54°26' E 011°32'2 4.3
2017-Sep-20 09:00N 54°28' E 011°32'2 4.7
2017-Sep-20 08:30N 54°30' E 011°31'2 4.1
2017-Sep-20 08:00N 54°32' E 011°29'1 2.2
2017-Sep-20 07:30N 54°31' E 011°29'1 2.4
2017-Sep-20 07:00N 54°30' E 011°30'1 2.8
2017-Sep-20 06:30N 54°29' E 011°31'1 2.8
2017-Sep-20 06:00N 54°27' E 011°33'2 3.1
2017-Sep-20 05:30N 54°26' E 011°34'2 3.1
2017-Sep-20 05:00N 54°25' E 011°36'1 2.4
2017-Sep-20 04:31N 54°24' E 011°37'1 2.5
2017-Sep-20 04:00N 54°23' E 011°39'1 2.9
2017-Sep-20 03:30N 54°22' E 011°40'2 3.1
2017-Sep-20 02:57N 54°20' E 011°41'3 3.7
2017-Sep-20 02:07N 54°17' E 011°43'1 4.1
2017-Sep-20 01:53N 54°16' E 011°43'1 2.2
2017-Sep-20 01:26N 54°16' E 011°42'1 2.2
2017-Sep-20 01:00N 54°17' E 011°41'1 2.0
2017-Sep-20 00:30N 54°18' E 011°41'1 2.0
2017-Sep-20 00:00N 54°19' E 011°41'1 1.8
2017-Sep-19 23:30N 54°20' E 011°40'1 2.0
2017-Sep-19 23:00N 54°21' E 011°40'1 2.1
2017-Sep-19 22:30N 54°22' E 011°41'1 2.8
2017-Sep-19 22:00N 54°23' E 011°41'2 3.5
2017-Sep-19 21:30N 54°25' E 011°41'2 4.0
2017-Sep-19 21:00N 54°27' E 011°41'2 4.1
2017-Sep-19 20:30N 54°29' E 011°40'1 2.3
2017-Sep-19 20:00N 54°29' E 011°38'1 1.4
2017-Sep-19 19:17N 54°28' E 011°39'0 1.5
2017-Sep-19 18:59N 54°28' E 011°39'1 1.2
2017-Sep-19 18:30N 54°27' E 011°39'1 1.8
2017-Sep-19 18:00N 54°27' E 011°40'1 1.8
2017-Sep-19 17:30N 54°26' E 011°41'5 3.6
2017-Sep-19 16:12N 54°21' E 011°44'1 6.9
2017-Sep-19 16:01N 54°20' E 011°44'3 5.1
2017-Sep-19 15:28N 54°17' E 011°44'2 4.4
2017-Sep-19 15:00N 54°15' E 011°43'6 4.4
2017-Sep-19 13:34N 54°20' E 011°36'0 6.5
2017-Sep-19 13:31N 54°21' E 011°36'3 5.8
2017-Sep-19 13:00N 54°23' E 011°33'2 4.7
2017-Sep-19 12:31N 54°25' E 011°32'3 5.4
2017-Sep-19 12:00N 54°28' E 011°31'3 5.2
2017-Sep-19 11:31N 54°31' E 011°30'2 4.5
2017-Sep-19 11:00N 54°32' E 011°28'2 4.7
2017-Sep-19 10:30N 54°34' E 011°24'3 5.1
2017-Sep-19 10:00N 54°35' E 011°21'2 4.7
2017-Sep-19 09:30N 54°36' E 011°17'2 4.4
2017-Sep-19 09:00N 54°37' E 011°14'2 3.9
2017-Sep-19 08:30N 54°38' E 011°10'2 3.5
2017-Sep-19 08:00N 54°38' E 011°08'2 3.0
2017-Sep-19 07:30N 54°38' E 011°05'2 3.5
2017-Sep-19 07:00N 54°38' E 011°02'2 3.4
2017-Sep-19 06:30N 54°38' E 010°59'2 3.4
2017-Sep-19 06:00N 54°38' E 010°56'2134.9
2017-Sep-19 06:00N 54°36' E 010°54'1 2.8 290 / 71015.0 5.4 15.0 7.616.0
2017-Sep-19 05:30N 54°37' E 010°53'2 3.3
2017-Sep-19 05:00N 54°37' E 010°50'2 3.7
2017-Sep-19 04:30N 54°37' E 010°47'2 3.1
2017-Sep-19 04:00N 54°37' E 010°45'1 2.8
2017-Sep-19 03:30N 54°37' E 010°42'1 2.4
2017-Sep-19 03:00N 54°37' E 010°40'1 2.4
2017-Sep-19 02:30N 54°37' E 010°38'1 2.4
2017-Sep-19 02:00N 54°37' E 010°36'1 2.4
2017-Sep-19 01:30N 54°38' E 010°34'1 2.4
2017-Sep-19 01:00N 54°38' E 010°32'1 2.5
2017-Sep-19 00:30N 54°38' E 010°30'1 2.7
2017-Sep-19 00:00N 54°38' E 010°28'1 2.1
2017-Sep-18 23:30N 54°39' E 010°26'1 2.0
2017-Sep-18 23:00N 54°39' E 010°24'1 1.9
2017-Sep-18 22:29N 54°39' E 010°22'1 1.9
2017-Sep-18 22:00N 54°39' E 010°21'1 1.8
2017-Sep-18 21:29N 54°40' E 010°19'1 2.1
2017-Sep-18 20:58N 54°40' E 010°18'1 2.3
2017-Sep-18 20:23N 54°41' E 010°16'1 1.7
2017-Sep-18 20:00N 54°41' E 010°15'1 1.8
2017-Sep-18 19:30N 54°41' E 010°13'1 1.8
2017-Sep-18 18:49N 54°41' E 010°11'2 1.0
2017-Sep-18 17:15N 54°42' E 010°09'1 2.9
2017-Sep-18 16:58N 54°43' E 010°08'3 1.5
2017-Sep-18 15:05N 54°45' E 010°06'0 1.3
2017-Sep-18 14:57N 54°45' E 010°06'2 1.6
2017-Sep-18 13:25N 54°46' E 010°01'  
2017-Sep-15 11:44N 54°46' E 010°06'3 7.9
2017-Sep-15 11:24N 54°44' E 010°08'3 7.5
2017-Sep-15 11:00N 54°42' E 010°12'2 4.6
2017-Sep-15 10:30N 54°40' E 010°15'17 0.9
2017-Sep-14 14:32N 54°57' E 010°05'2 5.7
2017-Sep-14 14:12N 54°55' E 010°06'1 5.7
2017-Sep-14 13:57N 54°54' E 010°07'4 7.4
2017-Sep-14 13:25N 54°50' E 010°09'3 7.7
2017-Sep-14 13:00N 54°47' E 010°11'12 7.6
2017-Sep-14 11:27N 54°35' E 010°15'39 0.8
2017-Sep-12 07:55N 54°10' E 009°24'6 6.1
2017-Sep-12 06:58N 54°05' E 009°19'3 6.5
2017-Sep-12 06:30N 54°02' E 009°18'3 6.4
2017-Sep-12 06:00N 53°59' E 009°16'3 6.3
2017-Sep-12 05:30N 53°56' E 009°13'3 5.8
2017-Sep-12 05:00N 53°54' E 009°09'1 1.3
2017-Sep-12 04:30N 53°54' E 009°09'0 0.0
2017-Sep-12 04:00N 53°54' E 009°09'1 2.7
2017-Sep-12 03:31N 53°53' E 009°07'4 8.0
2017-Sep-12 03:01N 53°51' E 009°00'4 8.5
2017-Sep-12 02:31N 53°50' E 008°53'4 7.8
2017-Sep-12 02:00N 53°51' E 008°47'3 6.6
2017-Sep-12 01:30N 53°53' E 008°42'3 6.5
2017-Sep-12 01:01N 53°56' E 008°40'2 4.7
2017-Sep-12 00:31N 53°57' E 008°37'3 6.3
2017-Sep-12 00:00N 53°58' E 008°32'3 6.3
2017-Sep-11 23:30N 53°59' E 008°27'3 6.6
2017-Sep-11 23:00N 53°59' E 008°21'4 6.7
2017-Sep-11 22:26N 53°60' E 008°14'3 6.9
2017-Sep-11 22:00N 53°59' E 008°09'3 6.4
2017-Sep-11 21:30N 53°59' E 008°04'3 6.6
2017-Sep-11 21:01N 53°58' E 007°59'4 6.8
2017-Sep-11 20:30N 53°55' E 007°55'5 5.7
2017-Sep-11 19:32N 53°51' E 008°01'0 5.1
2017-Sep-11 19:27N 53°51' E 008°02'3 7.1
2017-Sep-11 19:00N 53°49' E 008°07'4 8.5
2017-Sep-11 18:31N 53°46' E 008°11'4 8.4
2017-Sep-11 18:00N 53°43' E 008°17'4 7.2
2017-Sep-11 17:30N 53°41' E 008°21'4 7.8
2017-Sep-11 17:00N 53°38' E 008°26'4 7.8
2017-Sep-11 16:30N 53°36' E 008°31'3 5.7
2017-Sep-11 16:00N 53°33' E 008°34'0 0.4
2017-Sep-11 15:30N 53°34' E 008°34'0 0.3
2017-Sep-11 15:00N 53°33' E 008°34'1 1.4
2017-Sep-11 14:29N 53°33' E 008°34'0 0.0
2017-Sep-11 13:59N 53°33' E 008°34'0 0.0
2017-Sep-11 13:29N 53°33' E 008°34'0 0.0
2017-Sep-11 12:59N 53°33' E 008°34'0 0.0
2017-Sep-11 12:29N 53°33' E 008°34'0 0.0
2017-Sep-11 11:59N 53°33' E 008°34'0 0.0
2017-Sep-11 11:29N 53°33' E 008°34'0 0.0
2017-Sep-11 10:59N 53°33' E 008°34'0 0.0
2017-Sep-11 10:29N 53°33' E 008°34'0 0.0
2017-Sep-11 09:59N 53°33' E 008°34'0 0.0
2017-Sep-11 09:29N 53°33' E 008°34'  

Dump ship's entire track history